createdAt,value
2022-08-14T00:02:12.155Z,95729
2022-08-14T00:03:12.117Z,95729
2022-08-14T00:04:34.623Z,95723
2022-08-14T00:06:25.912Z,95728
2022-08-14T00:07:13.782Z,95728
2022-08-14T00:08:14.355Z,95728
2022-08-14T00:09:12.133Z,95728
2022-08-14T00:10:52.828Z,95729
2022-08-14T00:11:12.148Z,95730
2022-08-14T00:12:24.426Z,95730
2022-08-14T00:14:12.161Z,95726
2022-08-14T00:15:15.019Z,95722
2022-08-14T00:16:12.150Z,95722
2022-08-14T00:17:12.171Z,95720
2022-08-14T00:19:19.802Z,95714
2022-08-14T00:21:12.190Z,95707
2022-08-14T00:22:12.167Z,95707
2022-08-14T00:23:16.831Z,95705
2022-08-14T00:24:12.179Z,95702
2022-08-14T00:25:12.207Z,95707
2022-08-14T00:26:21.671Z,95704
2022-08-14T00:27:12.199Z,95704
2022-08-14T00:28:15.386Z,95703
2022-08-14T00:29:12.199Z,95705
2022-08-14T00:30:14.248Z,95705
2022-08-14T00:32:53.155Z,95694
2022-08-14T00:33:15.523Z,95695
2022-08-14T00:34:36.602Z,95696
2022-08-14T00:35:12.645Z,95696
2022-08-14T00:36:37.179Z,95695
2022-08-14T00:37:12.445Z,95693
2022-08-14T00:38:12.204Z,95700
2022-08-14T00:39:12.205Z,95700
2022-08-14T00:40:27.511Z,95696
2022-08-14T00:42:21.269Z,95695
2022-08-14T00:43:12.312Z,95695
2022-08-14T00:44:12.211Z,95691
2022-08-14T00:45:12.237Z,95690
2022-08-14T00:46:32.301Z,95690
2022-08-14T00:47:12.239Z,95688
2022-08-14T00:48:12.238Z,95688
2022-08-14T00:50:17.681Z,95680
2022-08-14T00:51:12.256Z,95680
2022-08-14T00:52:14.112Z,95682
2022-08-14T00:53:12.253Z,95682
2022-08-14T00:54:21.280Z,95682
2022-08-14T00:56:15.457Z,95678
2022-08-14T00:57:12.249Z,95675
2022-08-14T01:01:12.312Z,95672
2022-08-14T01:02:12.266Z,95671
2022-08-14T01:03:12.282Z,95671
2022-08-14T01:04:38.137Z,95669
2022-08-14T01:07:12.305Z,95667
2022-08-14T01:08:50.526Z,95667
2022-08-14T01:10:12.310Z,95670
2022-08-14T01:11:12.331Z,95670
2022-08-14T01:12:12.327Z,95671
2022-08-14T01:14:26.005Z,95665
2022-08-14T01:15:14.737Z,95665
2022-08-14T01:16:14.940Z,95659
2022-08-14T01:17:12.326Z,95660
2022-08-14T01:18:12.324Z,95659
2022-08-14T01:19:12.311Z,95659
2022-08-14T01:20:27.601Z,95658
2022-08-14T01:21:12.315Z,95656
2022-08-14T01:22:13.028Z,95655
2022-08-14T01:23:16.248Z,95655
2022-08-14T01:24:12.352Z,95651
2022-08-14T01:26:12.328Z,95654
2022-08-14T01:27:12.343Z,95654
2022-08-14T01:28:12.345Z,95654
2022-08-14T01:29:16.246Z,95649
2022-08-14T01:31:12.487Z,95651
2022-08-14T01:33:12.347Z,95650
2022-08-14T01:35:20.850Z,95651
2022-08-14T01:37:13.643Z,95646
2022-08-14T01:38:12.374Z,95645
2022-08-14T01:39:12.955Z,95645
2022-08-14T01:40:12.378Z,95644
2022-08-14T01:41:15.045Z,95644
2022-08-14T01:42:31.480Z,95642
2022-08-14T01:43:12.376Z,95642
2022-08-14T01:44:32.281Z,95641
2022-08-14T01:45:12.368Z,95641
2022-08-14T01:46:24.616Z,95642
2022-08-14T01:47:16.573Z,95640
2022-08-14T01:48:13.386Z,95645
2022-08-14T01:49:12.391Z,95639
2022-08-14T01:50:12.394Z,95639
2022-08-14T01:51:20.183Z,95638
2022-08-14T01:52:33.622Z,95640
2022-08-14T01:53:12.399Z,95640
2022-08-14T01:54:14.202Z,95643
2022-08-14T01:55:12.455Z,95637
2022-08-14T01:56:18.709Z,95639
2022-08-14T01:57:12.413Z,95639
2022-08-14T02:02:19.060Z,95637
2022-08-14T02:03:12.424Z,95637
2022-08-14T02:04:40.484Z,95634
2022-08-14T02:06:32.554Z,95639
2022-08-14T02:07:15.456Z,95640
2022-08-14T02:08:12.451Z,95638
2022-08-14T02:10:13.217Z,95635
2022-08-14T02:12:19.630Z,95628
2022-08-14T02:13:12.438Z,95628
2022-08-14T02:15:12.474Z,95624
2022-08-14T02:16:21.713Z,95621
2022-08-14T02:17:12.479Z,95619
2022-08-14T02:18:15.329Z,95619
2022-08-14T02:19:12.473Z,95615
2022-08-14T02:20:12.497Z,95613
2022-08-14T02:22:12.479Z,95609
2022-08-14T02:23:12.485Z,95610
2022-08-14T02:24:40.371Z,95610
2022-08-14T02:25:12.510Z,95610
2022-08-14T02:26:24.655Z,95608
2022-08-14T02:28:23.732Z,95600
2022-08-14T02:28:25.441Z,95608
2022-08-14T02:29:12.507Z,95598
2022-08-14T02:30:12.514Z,95596
2022-08-14T02:31:14.959Z,95596
2022-08-14T02:33:12.511Z,95592
2022-08-14T02:34:20.346Z,95588
2022-08-14T02:37:05.395Z,95586
2022-08-14T02:37:12.525Z,95586
2022-08-14T02:41:12.553Z,95578
2022-08-14T02:42:12.981Z,95578
2022-08-14T02:43:12.569Z,95582
2022-08-14T02:44:12.533Z,95582
2022-08-14T02:46:12.603Z,95577
2022-08-14T02:49:03.389Z,95571
2022-08-14T02:49:12.569Z,95563
2022-08-14T02:51:13.986Z,95558
2022-08-14T02:52:56.103Z,95552
2022-08-14T02:53:12.553Z,95552
2022-08-14T02:54:13.022Z,95552
2022-08-14T02:55:15.689Z,95546
2022-08-14T02:56:30.224Z,95539
2022-08-14T02:57:15.394Z,95539
2022-08-14T02:58:12.566Z,95537
2022-08-14T02:59:12.582Z,95538
2022-08-14T03:00:12.593Z,95536
2022-08-14T03:03:12.568Z,95536
2022-08-14T03:06:12.597Z,95535
2022-08-14T03:09:12.598Z,95534
2022-08-14T03:10:25.565Z,95532
2022-08-14T03:11:12.648Z,95530
2022-08-14T03:12:12.615Z,95536
2022-08-14T03:13:19.110Z,95536
2022-08-14T03:14:12.600Z,95533
2022-08-14T03:16:20.045Z,95539
2022-08-14T03:17:12.641Z,95537
2022-08-14T03:19:12.627Z,95540
2022-08-14T03:22:17.711Z,95538
2022-08-14T03:23:12.630Z,95534
2022-08-14T03:24:21.326Z,95534
2022-08-14T03:27:12.638Z,95529
2022-08-14T03:28:14.941Z,95537
2022-08-14T03:29:13.889Z,95537
2022-08-14T03:30:14.606Z,95540
2022-08-14T03:31:13.301Z,95540
2022-08-14T03:32:12.668Z,95541
2022-08-14T03:34:24.993Z,95539
2022-08-14T03:35:12.664Z,95536
2022-08-14T03:37:37.632Z,95533
2022-08-14T03:37:37.632Z,95530
2022-08-14T03:39:14.854Z,95526
2022-08-14T03:39:22.967Z,95526
2022-08-14T03:40:18.264Z,95523
2022-08-14T03:41:12.728Z,95518
2022-08-14T03:42:19.319Z,95518
2022-08-14T03:43:12.672Z,95518
2022-08-14T03:45:18.578Z,95520
2022-08-14T03:45:27.957Z,95514
2022-08-14T03:46:52.856Z,95519
2022-08-14T03:47:15.516Z,95526
2022-08-14T03:48:26.784Z,95526
2022-08-14T03:49:12.796Z,95529
2022-08-14T03:51:12.714Z,95528
2022-08-14T03:52:38.555Z,95528
2022-08-14T03:56:12.757Z,95536
2022-08-14T03:57:12.735Z,95532
2022-08-14T03:59:17.737Z,95533
2022-08-14T04:00:13.638Z,95533
2022-08-14T04:01:12.743Z,95533
2022-08-14T04:02:33.187Z,95533
2022-08-14T04:03:18.011Z,95533
2022-08-14T04:05:16.411Z,95528
2022-08-14T04:06:12.776Z,95529
2022-08-14T04:07:12.743Z,95529
2022-08-14T04:08:29.810Z,95529
2022-08-14T04:09:12.776Z,95530
2022-08-14T04:10:12.773Z,95530
2022-08-14T04:11:12.769Z,95530
2022-08-14T04:12:13.570Z,95527
2022-08-14T04:13:12.778Z,95527
2022-08-14T04:14:16.444Z,95530
2022-08-14T04:15:12.766Z,95528
2022-08-14T04:16:13.019Z,95527
2022-08-14T04:17:12.791Z,95527
2022-08-14T04:18:12.771Z,95525
2022-08-14T04:19:12.771Z,95525
2022-08-14T04:20:12.791Z,95526
2022-08-14T04:21:12.799Z,95526
2022-08-14T04:22:12.778Z,95526
2022-08-14T04:23:15.462Z,95523
2022-08-14T04:24:12.797Z,95530
2022-08-14T04:25:12.776Z,95530
2022-08-14T04:26:14.780Z,95530
2022-08-14T04:27:12.802Z,95530
2022-08-14T04:29:08.217Z,95535
2022-08-14T04:29:14.931Z,95535
2022-08-14T04:30:12.816Z,95534
2022-08-14T04:31:12.808Z,95534
2022-08-14T04:33:00.757Z,95535
2022-08-14T04:34:20.701Z,95535
2022-08-14T04:35:12.869Z,95534
2022-08-14T04:36:15.742Z,95533
2022-08-14T04:37:12.989Z,95533
2022-08-14T04:38:37.293Z,95536
2022-08-14T04:39:12.847Z,95540
2022-08-14T04:40:12.847Z,95537
2022-08-14T04:41:12.814Z,95537
2022-08-14T04:44:26.641Z,95533
2022-08-14T04:45:12.876Z,95535
2022-08-14T04:46:55.688Z,95534
2022-08-14T04:47:12.875Z,95539
2022-08-14T04:48:12.979Z,95539
2022-08-14T04:50:12.876Z,95535
2022-08-14T04:52:15.390Z,95542
2022-08-14T04:53:12.854Z,95542
2022-08-14T04:54:12.876Z,95542
2022-08-14T04:55:12.886Z,95541
2022-08-14T04:59:12.873Z,95541
2022-08-14T05:00:15.966Z,95541
2022-08-14T05:01:19.404Z,95542
2022-08-14T05:02:12.956Z,95540
2022-08-14T05:03:12.882Z,95534
2022-08-14T05:05:12.909Z,95538
2022-08-14T05:06:37.891Z,95539
2022-08-14T05:07:12.898Z,95539
2022-08-14T05:08:32.135Z,95537
2022-08-14T05:09:13.953Z,95544
2022-08-14T05:10:16.457Z,95544
2022-08-14T05:11:13.410Z,95548
2022-08-14T05:13:13.340Z,95552
2022-08-14T05:14:33.782Z,95552
2022-08-14T05:15:12.922Z,95552
2022-08-14T05:16:12.910Z,95550
2022-08-14T05:17:12.930Z,95549
2022-08-14T05:21:57.478Z,95545
2022-08-14T05:22:16.373Z,95545
2022-08-14T05:23:12.958Z,95543
2022-08-14T05:24:17.491Z,95543
2022-08-14T05:25:12.961Z,95543
2022-08-14T05:26:12.958Z,95543
2022-08-14T05:27:12.957Z,95539
2022-08-14T05:28:16.455Z,95539
2022-08-14T05:29:12.975Z,95536
2022-08-14T05:30:12.958Z,95536
2022-08-14T05:34:12.998Z,95521
2022-08-14T05:35:12.986Z,95520
2022-08-14T05:36:16.760Z,95520
2022-08-14T05:37:12.994Z,95519
2022-08-14T05:38:30.783Z,95519
2022-08-14T05:39:13.015Z,95512
2022-08-14T05:40:12.997Z,95512
2022-08-14T05:42:21.911Z,95509
2022-08-14T05:43:12.991Z,95509
2022-08-14T05:44:13.005Z,95501
2022-08-14T05:45:13.714Z,95501
2022-08-14T05:46:15.287Z,95499
2022-08-14T05:47:13.005Z,95499
2022-08-14T05:48:13.017Z,95498
2022-08-14T05:49:13.004Z,95492
2022-08-14T05:50:18.711Z,95494
2022-08-14T05:51:13.037Z,95496
2022-08-14T05:52:13.013Z,95496
2022-08-14T05:53:13.023Z,95494
2022-08-14T05:54:26.643Z,95494
2022-08-14T05:55:13.011Z,95488
2022-08-14T05:56:14.846Z,95488
2022-08-14T05:57:13.021Z,95488
2022-08-14T05:58:13.053Z,95485
2022-08-14T06:00:13.050Z,95480
2022-08-14T06:01:13.084Z,95480
2022-08-14T06:02:13.041Z,95479
2022-08-14T06:03:13.056Z,95472
2022-08-14T06:04:13.039Z,95472
2022-08-14T06:05:13.053Z,95474
2022-08-14T06:06:13.098Z,95466
2022-08-14T06:07:13.045Z,95466
2022-08-14T06:08:31.409Z,95468
2022-08-14T06:09:13.090Z,95464
2022-08-14T06:10:13.049Z,95464
2022-08-14T06:11:14.866Z,95464
2022-08-14T06:12:13.090Z,95467
2022-08-14T06:13:13.063Z,95466
2022-08-14T06:14:21.332Z,95465
2022-08-14T06:15:13.108Z,95464
2022-08-14T06:16:13.100Z,95464
2022-08-14T06:17:25.694Z,95460
2022-08-14T06:18:13.108Z,95463
2022-08-14T06:19:18.436Z,95460
2022-08-14T06:20:13.143Z,95464
2022-08-14T06:21:13.709Z,95463
2022-08-14T06:22:13.121Z,95461
2022-08-14T06:23:13.095Z,95462
2022-08-14T06:24:18.313Z,95463
2022-08-14T06:25:13.100Z,95463
2022-08-14T06:26:13.125Z,95468
2022-08-14T06:27:13.111Z,95468
2022-08-14T06:28:27.146Z,95468
2022-08-14T06:29:13.130Z,95469
2022-08-14T06:30:13.118Z,95471
2022-08-14T06:31:13.141Z,95475
2022-08-14T06:32:37.272Z,95475
2022-08-14T06:33:15.798Z,95483
2022-08-14T06:35:11.334Z,95483
2022-08-14T06:35:13.745Z,95481
2022-08-14T06:36:13.152Z,95481
2022-08-14T06:37:13.126Z,95479
2022-08-14T06:38:16.792Z,95477
2022-08-14T06:39:13.139Z,95479
2022-08-14T06:40:25.748Z,95479
2022-08-14T06:41:13.158Z,95481
2022-08-14T06:42:25.576Z,95478
2022-08-14T06:43:15.509Z,95478
2022-08-14T06:44:13.152Z,95476
2022-08-14T06:45:13.142Z,95476
2022-08-14T06:47:13.144Z,95478
2022-08-14T06:48:13.175Z,95476
2022-08-14T06:49:13.184Z,95476
2022-08-14T06:50:13.192Z,95479
2022-08-14T06:51:13.161Z,95479
2022-08-14T06:52:16.256Z,95477
2022-08-14T06:53:13.166Z,95473
2022-08-14T06:54:13.181Z,95471
2022-08-14T06:55:14.200Z,95471
2022-08-14T06:56:13.176Z,95473
2022-08-14T06:57:13.308Z,95481
2022-08-14T06:58:24.701Z,95483
2022-08-14T06:59:17.923Z,95483
2022-08-14T07:00:22.342Z,95489
2022-08-14T07:01:13.218Z,95488
2022-08-14T07:02:17.783Z,95488
2022-08-14T07:03:13.197Z,95482
2022-08-14T07:04:22.810Z,95481
2022-08-14T07:05:13.197Z,95481
2022-08-14T07:07:13.209Z,95485
2022-08-14T07:08:13.259Z,95488
2022-08-14T07:09:16.829Z,95488
2022-08-14T07:10:17.187Z,95485
2022-08-14T07:11:13.207Z,95485
2022-08-14T07:12:56.111Z,95481
2022-08-14T07:13:13.237Z,95481
2022-08-14T07:14:13.252Z,95476
2022-08-14T07:15:13.267Z,95476
2022-08-14T07:16:13.244Z,95475
2022-08-14T07:17:13.234Z,95475
2022-08-14T07:18:13.282Z,95476
2022-08-14T07:19:13.254Z,95479
2022-08-14T07:20:13.917Z,95479
2022-08-14T07:21:13.264Z,95488
2022-08-14T07:22:20.265Z,95488
2022-08-14T07:23:20.777Z,95491
2022-08-14T07:24:21.790Z,95491
2022-08-14T07:25:13.267Z,95491
2022-08-14T07:26:13.279Z,95490
2022-08-14T07:27:13.263Z,95490
2022-08-14T07:28:20.365Z,95490
2022-08-14T07:29:13.277Z,95493
2022-08-14T07:30:34.226Z,95491
2022-08-14T07:31:13.280Z,95491
2022-08-14T07:32:13.278Z,95497
2022-08-14T07:33:13.288Z,95495
2022-08-14T07:34:13.292Z,95493
2022-08-14T07:35:13.282Z,95493
2022-08-14T07:36:26.623Z,95494
2022-08-14T07:37:13.284Z,95490
2022-08-14T07:38:13.302Z,95485
2022-08-14T07:39:13.531Z,95485
2022-08-14T07:40:13.314Z,95488
2022-08-14T07:41:14.749Z,95488
2022-08-14T07:42:13.287Z,95487
2022-08-14T07:43:14.345Z,95488
2022-08-14T07:44:29.059Z,95488
2022-08-14T07:45:13.314Z,95486
2022-08-14T07:46:13.324Z,95486
2022-08-14T07:47:15.402Z,95487
2022-08-14T07:48:15.016Z,95487
2022-08-14T07:49:15.365Z,95475
2022-08-14T07:50:13.353Z,95475
2022-08-14T07:51:13.326Z,95471
2022-08-14T07:52:13.315Z,95467
2022-08-14T07:53:13.358Z,95467
2022-08-14T07:54:16.546Z,95463
2022-08-14T07:55:13.349Z,95459
2022-08-14T07:56:21.642Z,95460
2022-08-14T07:57:22.449Z,95456
2022-08-14T07:58:30.655Z,95460
2022-08-14T07:59:13.343Z,95460
2022-08-14T08:00:30.821Z,95464
2022-08-14T08:01:13.367Z,95478
2022-08-14T08:02:18.605Z,95487
2022-08-14T08:03:13.431Z,95487
2022-08-14T08:04:18.713Z,95495
2022-08-14T08:05:13.355Z,95495
2022-08-14T08:06:17.563Z,95496
2022-08-14T08:07:13.344Z,95493
2022-08-14T08:08:27.025Z,95491
2022-08-14T08:09:13.377Z,95486
2022-08-14T08:10:13.387Z,95483
2022-08-14T08:11:14.969Z,95485
2022-08-14T08:12:14.192Z,95482
2022-08-14T08:13:13.389Z,95482
2022-08-14T08:14:17.284Z,95481
2022-08-14T08:15:13.405Z,95479
2022-08-14T08:16:13.394Z,95479
2022-08-14T08:17:13.392Z,95478
2022-08-14T08:18:27.385Z,95478
2022-08-14T08:19:14.202Z,95479
2022-08-14T08:20:13.409Z,95481
2022-08-14T08:21:13.404Z,95481
2022-08-14T08:22:13.413Z,95477
2022-08-14T08:23:13.420Z,95480
2022-08-14T08:24:19.767Z,95478
2022-08-14T08:26:13.413Z,95477
2022-08-14T08:27:13.428Z,95474
2022-08-14T08:28:22.110Z,95476
2022-08-14T08:29:13.446Z,95476
2022-08-14T08:30:13.438Z,95469
2022-08-14T08:31:13.423Z,95469
2022-08-14T08:32:13.450Z,95469
2022-08-14T08:33:13.428Z,95469
2022-08-14T08:34:14.417Z,95469
2022-08-14T08:35:13.456Z,95469
2022-08-14T08:36:18.858Z,95468
2022-08-14T08:37:13.457Z,95466
2022-08-14T08:38:14.342Z,95460
2022-08-14T08:39:16.796Z,95453
2022-08-14T08:40:20.567Z,95453
2022-08-14T08:41:13.457Z,95450
2022-08-14T08:42:13.467Z,95448
2022-08-14T08:43:13.463Z,95449
2022-08-14T08:44:17.495Z,95455
2022-08-14T08:45:13.453Z,95455
2022-08-14T08:46:21.118Z,95448
2022-08-14T08:47:13.483Z,95448
2022-08-14T08:48:17.963Z,95447
2022-08-14T08:49:13.469Z,95447
2022-08-14T08:50:23.512Z,95447
2022-08-14T08:51:13.481Z,95448
2022-08-14T08:52:15.237Z,95445
2022-08-14T08:53:13.497Z,95444
2022-08-14T08:54:19.595Z,95444
2022-08-14T08:55:13.539Z,95443
2022-08-14T08:56:30.331Z,95443
2022-08-14T08:57:13.492Z,95446
2022-08-14T08:58:16.554Z,95444
2022-08-14T08:59:13.495Z,95449
2022-08-14T09:00:24.980Z,95454
2022-08-14T09:01:15.938Z,95458
2022-08-14T09:02:13.523Z,95455
2022-08-14T09:03:13.510Z,95455
2022-08-14T09:04:14.744Z,95454
2022-08-14T09:05:13.515Z,95452
2022-08-14T09:07:00.260Z,95455
2022-08-14T09:07:13.545Z,95454
2022-08-14T09:08:30.299Z,95458
2022-08-14T09:09:13.536Z,95457
2022-08-14T09:10:13.542Z,95457
2022-08-14T09:11:19.965Z,95455
2022-08-14T09:12:14.063Z,95455
2022-08-14T09:13:13.546Z,95457
2022-08-14T09:14:13.529Z,95456
2022-08-14T09:15:13.531Z,95456
2022-08-14T09:16:18.666Z,95448
2022-08-14T09:17:13.561Z,95448
2022-08-14T09:18:13.546Z,95450
2022-08-14T09:19:13.557Z,95446
2022-08-14T09:20:13.558Z,95446
2022-08-14T09:21:13.580Z,95448
2022-08-14T09:22:35.483Z,95452
2022-08-14T09:23:16.861Z,95455
2022-08-14T09:24:26.260Z,95457
2022-08-14T09:25:15.071Z,95459
2022-08-14T09:26:21.243Z,95459
2022-08-14T09:27:22.180Z,95454
2022-08-14T09:28:13.605Z,95460
2022-08-14T09:29:13.592Z,95463
2022-08-14T09:30:32.391Z,95472
2022-08-14T09:31:17.942Z,95472
2022-08-14T09:32:59.626Z,95475
2022-08-14T09:33:14.005Z,95475
2022-08-14T09:34:27.315Z,95479
2022-08-14T09:35:13.637Z,95476
2022-08-14T09:36:13.629Z,95476
2022-08-14T09:37:13.630Z,95469
2022-08-14T09:38:25.703Z,95461
2022-08-14T09:39:22.800Z,95459
2022-08-14T09:40:16.733Z,95454
2022-08-14T09:41:13.646Z,95450
2022-08-14T09:42:20.722Z,95450
2022-08-14T09:43:13.633Z,95443
2022-08-14T09:44:13.628Z,95443
2022-08-14T09:45:13.649Z,95444
2022-08-14T09:46:17.127Z,95436
2022-08-14T09:47:14.806Z,95436
2022-08-14T09:48:13.648Z,95431
2022-08-14T09:49:16.699Z,95430
2022-08-14T09:50:13.691Z,95431
2022-08-14T09:51:13.653Z,95432
2022-08-14T09:52:32.880Z,95433
2022-08-14T09:53:18.023Z,95433
2022-08-14T09:54:22.226Z,95431
2022-08-14T09:55:13.665Z,95431
2022-08-14T09:56:13.662Z,95429
2022-08-14T09:57:13.700Z,95427
2022-08-14T09:58:19.308Z,95430
2022-08-14T09:59:15.464Z,95429
2022-08-14T10:00:25.983Z,95428
2022-08-14T10:01:13.690Z,95427
2022-08-14T10:02:13.729Z,95427
2022-08-14T10:03:14.871Z,95427
2022-08-14T10:04:32.814Z,95427
2022-08-14T10:05:13.736Z,95431
2022-08-14T10:06:13.728Z,95431
2022-08-14T10:07:14.909Z,95426
2022-08-14T10:08:14.954Z,95426
2022-08-14T10:09:16.873Z,95430
2022-08-14T10:10:23.701Z,95429
2022-08-14T10:11:13.691Z,95429
2022-08-14T10:12:19.039Z,95431
2022-08-14T10:13:13.699Z,95434
2022-08-14T10:14:16.761Z,95434
2022-08-14T10:15:16.097Z,95436
2022-08-14T10:16:27.645Z,95438
2022-08-14T10:17:13.774Z,95437
2022-08-14T10:18:18.237Z,95437
2022-08-14T10:19:09.780Z,95437
2022-08-14T10:19:24.827Z,95432
2022-08-14T10:20:39.429Z,95429
2022-08-14T10:21:26.132Z,95425
2022-08-14T10:23:14.896Z,95425
2022-08-14T10:23:17.872Z,95422
2022-08-14T10:24:17.536Z,95416
2022-08-14T10:25:13.758Z,95421
2022-08-14T10:26:23.100Z,95416
2022-08-14T10:26:38.666Z,95416
2022-08-14T10:27:13.785Z,95415
2022-08-14T10:28:39.410Z,95415
2022-08-14T10:29:19.697Z,95408
2022-08-14T10:30:13.748Z,95408
2022-08-14T10:31:13.769Z,95409
2022-08-14T10:32:18.154Z,95411
2022-08-14T10:34:14.084Z,95411
2022-08-14T10:35:14.970Z,95407
2022-08-14T10:36:34.545Z,95402
2022-08-14T10:38:13.804Z,95403
2022-08-14T10:39:13.782Z,95403
2022-08-14T10:40:37.677Z,95398
2022-08-14T10:41:13.873Z,95391
2022-08-14T10:42:16.442Z,95389
2022-08-14T10:43:13.811Z,95391
2022-08-14T10:44:21.005Z,95391
2022-08-14T10:45:13.792Z,95392
2022-08-14T10:46:59.210Z,95392
2022-08-14T10:47:41.004Z,95395
2022-08-14T10:48:24.365Z,95394
2022-08-14T10:49:13.797Z,95395
2022-08-14T10:50:14.890Z,95396
2022-08-14T10:51:13.818Z,95394
2022-08-14T10:52:16.284Z,95389
2022-08-14T10:53:13.835Z,95389
2022-08-14T10:54:17.131Z,95393
2022-08-14T10:55:13.825Z,95391
2022-08-14T10:56:21.767Z,95391
2022-08-14T10:57:13.840Z,95390
2022-08-14T10:58:14.767Z,95390
2022-08-14T10:59:13.837Z,95390
2022-08-14T11:00:13.838Z,95392
2022-08-14T11:02:13.841Z,95392
2022-08-14T11:03:20.032Z,95395
2022-08-14T11:04:13.904Z,95396
2022-08-14T11:05:14.762Z,95396
2022-08-14T11:06:13.851Z,95394
2022-08-14T11:07:13.848Z,95394
2022-08-14T11:09:13.881Z,95401
2022-08-14T11:10:13.865Z,95401
2022-08-14T11:11:13.854Z,95401
2022-08-14T11:12:34.796Z,95407
2022-08-14T11:13:13.858Z,95404
2022-08-14T11:14:13.910Z,95402
2022-08-14T11:15:13.888Z,95400
2022-08-14T11:16:13.895Z,95402
2022-08-14T11:17:13.909Z,95407
2022-08-14T11:18:20.110Z,95410
2022-08-14T11:19:13.915Z,95411
2022-08-14T11:20:16.750Z,95409
2022-08-14T11:21:13.889Z,95409
2022-08-14T11:22:52.113Z,95416
2022-08-14T11:23:13.911Z,95414
2022-08-14T11:24:50.764Z,95414
2022-08-14T11:25:13.916Z,95420
2022-08-14T11:27:13.915Z,95413
2022-08-14T11:28:18.619Z,95413
2022-08-14T11:29:16.473Z,95411
2022-08-14T11:30:52.321Z,95410
2022-08-14T11:31:13.938Z,95415
2022-08-14T11:32:13.938Z,95414
2022-08-14T11:33:13.933Z,95414
2022-08-14T11:34:32.582Z,95417
2022-08-14T11:35:13.919Z,95417
2022-08-14T11:36:17.275Z,95419
2022-08-14T11:37:21.521Z,95422
2022-08-14T11:38:13.944Z,95422
2022-08-14T11:39:13.953Z,95422
2022-08-14T11:40:14.002Z,95419
2022-08-14T11:41:13.940Z,95420
2022-08-14T11:42:57.775Z,95419
2022-08-14T11:43:13.965Z,95413
2022-08-14T11:44:17.732Z,95414
2022-08-14T11:45:16.934Z,95416
2022-08-14T11:47:13.994Z,95411
2022-08-14T11:49:04.167Z,95413
2022-08-14T11:49:18.540Z,95415
2022-08-14T11:50:13.973Z,95410
2022-08-14T11:51:13.970Z,95415
2022-08-14T11:52:13.999Z,95417
2022-08-14T11:54:13.978Z,95416
2022-08-14T11:55:13.970Z,95416
2022-08-14T11:56:13.981Z,95413
2022-08-14T11:57:14.018Z,95414
2022-08-14T11:58:23.912Z,95412
2022-08-14T11:59:14.006Z,95412
2022-08-14T12:00:14.803Z,95405
2022-08-14T12:03:16.251Z,95406
2022-08-14T12:04:32.621Z,95405
2022-08-14T12:05:14.095Z,95408
2022-08-14T12:06:28.866Z,95407
2022-08-14T12:07:14.039Z,95408
2022-08-14T12:08:14.014Z,95407
2022-08-14T12:09:15.248Z,95409
2022-08-14T12:10:26.708Z,95409
2022-08-14T12:11:14.024Z,95404
2022-08-14T12:12:14.022Z,95404
2022-08-14T12:13:14.029Z,95403
2022-08-14T12:14:30.510Z,95403
2022-08-14T12:15:14.041Z,95407
2022-08-14T12:16:20.845Z,95407
2022-08-14T12:17:14.052Z,95410
2022-08-14T12:18:19.488Z,95413
2022-08-14T12:19:14.054Z,95413
2022-08-14T12:20:14.947Z,95412
2022-08-14T12:21:15.836Z,95412
2022-08-14T12:22:29.367Z,95414
2022-08-14T12:24:31.734Z,95414
2022-08-14T12:25:14.080Z,95413
2022-08-14T12:26:39.745Z,95413
2022-08-14T12:27:16.903Z,95417
2022-08-14T12:28:26.932Z,95417
2022-08-14T12:29:14.187Z,95418
2022-08-14T12:30:14.094Z,95420
2022-08-14T12:33:14.082Z,95414
2022-08-14T12:34:14.123Z,95413
2022-08-14T12:35:14.081Z,95413
2022-08-14T12:36:17.944Z,95416
2022-08-14T12:37:14.095Z,95412
2022-08-14T12:38:21.079Z,95425
2022-08-14T12:39:14.110Z,95411
2022-08-14T12:40:14.112Z,95419
2022-08-14T12:41:20.443Z,95417
2022-08-14T12:42:33.975Z,95413
2022-08-14T12:43:16.855Z,95409
2022-08-14T12:44:14.146Z,95412
2022-08-14T12:45:17.248Z,95409
2022-08-14T12:46:26.687Z,95404
2022-08-14T12:47:15.136Z,95405
2022-08-14T12:48:21.774Z,95405
2022-08-14T12:49:16.147Z,95402
2022-08-14T12:50:14.138Z,95402
2022-08-14T12:52:17.365Z,95399
2022-08-14T12:53:17.315Z,95398
2022-08-14T12:54:27.479Z,95392
2022-08-14T12:55:14.184Z,95397
2022-08-14T12:56:21.932Z,95394
2022-08-14T12:57:19.439Z,95394
2022-08-14T12:58:29.384Z,95390
2022-08-14T12:59:14.186Z,95392
2022-08-14T13:00:23.705Z,95389
2022-08-14T13:01:16.831Z,95385
2022-08-14T13:02:14.204Z,95387
2022-08-14T13:03:14.183Z,95381
2022-08-14T13:04:14.184Z,95386
2022-08-14T13:05:14.192Z,95385
2022-08-14T13:06:14.201Z,95383
2022-08-14T13:07:14.200Z,95383
2022-08-14T13:08:33.306Z,95383
2022-08-14T13:09:14.201Z,95377
2022-08-14T13:10:47.266Z,95375
2022-08-14T13:11:14.210Z,95370
2022-08-14T13:12:34.801Z,95369
2022-08-14T13:13:15.463Z,95365
2022-08-14T13:14:17.301Z,95365
2022-08-14T13:15:14.289Z,95368
2022-08-14T13:16:20.885Z,95363
2022-08-14T13:17:14.205Z,95361
2022-08-14T13:18:14.213Z,95361
2022-08-14T13:19:14.239Z,95359
2022-08-14T13:20:23.209Z,95352
2022-08-14T13:21:14.218Z,95355
2022-08-14T13:22:24.466Z,95353
2022-08-14T13:23:14.247Z,95360
2022-08-14T13:24:14.231Z,95360
2022-08-14T13:25:15.850Z,95352
2022-08-14T13:26:14.269Z,95349
2022-08-14T13:27:14.217Z,95349
2022-08-14T13:28:29.996Z,95350
2022-08-14T13:29:14.253Z,95356
2022-08-14T13:30:21.195Z,95355
2022-08-14T13:31:14.253Z,95350
2022-08-14T13:32:14.256Z,95351
2022-08-14T13:33:14.936Z,95357
2022-08-14T13:34:14.271Z,95351
2022-08-14T13:35:17.412Z,95354
2022-08-14T13:36:23.911Z,95350
2022-08-14T13:37:14.360Z,95350
2022-08-14T13:38:14.261Z,95360
2022-08-14T13:39:14.269Z,95353
2022-08-14T13:40:14.264Z,95353
2022-08-14T13:41:14.274Z,95346
2022-08-14T13:42:14.316Z,95346
2022-08-14T13:43:14.279Z,95345
2022-08-14T13:44:14.300Z,95341
2022-08-14T13:45:14.275Z,95341
2022-08-14T13:46:14.295Z,95340
2022-08-14T13:47:14.307Z,95340
2022-08-14T13:48:27.663Z,95340
2022-08-14T13:49:14.911Z,95345
2022-08-14T13:50:14.289Z,95332
2022-08-14T13:51:14.304Z,95339
2022-08-14T13:52:47.997Z,95341
2022-08-14T13:53:14.295Z,95341
2022-08-14T13:54:14.348Z,95337
2022-08-14T13:55:14.295Z,95337
2022-08-14T13:56:14.820Z,95336
2022-08-14T13:57:17.291Z,95332
2022-08-14T13:58:30.243Z,95332
2022-08-14T13:59:20.184Z,95330
2022-08-14T14:00:14.350Z,95334
2022-08-14T14:01:14.394Z,95328
2022-08-14T14:02:14.380Z,95328
2022-08-14T14:04:19.562Z,95324
2022-08-14T14:05:14.336Z,95322
2022-08-14T14:06:14.329Z,95321
2022-08-14T14:07:14.349Z,95319
2022-08-14T14:08:18.418Z,95323
2022-08-14T14:10:14.402Z,95324
2022-08-14T14:11:15.935Z,95325
2022-08-14T14:12:37.364Z,95326
2022-08-14T14:13:14.358Z,95319
2022-08-14T14:14:45.243Z,95319
2022-08-14T14:15:14.391Z,95318
2022-08-14T14:16:15.254Z,95318
2022-08-14T14:17:14.354Z,95316
2022-08-14T14:18:29.739Z,95315
2022-08-14T14:19:14.372Z,95311
2022-08-14T14:20:15.118Z,95311
2022-08-14T14:21:14.383Z,95309
2022-08-14T14:22:35.630Z,95306
2022-08-14T14:23:17.637Z,95303
2022-08-14T14:24:15.433Z,95307